sensor_id;sensor_type;location;lat;lon;timestamp;P1;durP1;ratioP1;P2;durP2;ratioP2
12780;SDS011;6454;43.304;24.344;2023-04-24T00:01:08;4.00;;;3.60;;
12780;SDS011;6454;43.304;24.344;2023-04-24T00:03:35;4.18;;;3.50;;
12780;SDS011;6454;43.304;24.344;2023-04-24T00:06:05;3.78;;;3.15;;
12780;SDS011;6454;43.304;24.344;2023-04-24T00:08:33;3.75;;;3.25;;
12780;SDS011;6454;43.304;24.344;2023-04-24T00:11:00;4.47;;;3.50;;
12780;SDS011;6454;43.304;24.344;2023-04-24T00:13:27;4.53;;;3.70;;
12780;SDS011;6454;43.304;24.344;2023-04-24T00:15:54;4.35;;;3.95;;
12780;SDS011;6454;43.304;24.344;2023-04-24T00:18:21;4.53;;;3.70;;
12780;SDS011;6454;43.304;24.344;2023-04-24T00:20:48;4.88;;;3.90;;
12780;SDS011;6454;43.304;24.344;2023-04-24T00:23:16;4.22;;;3.83;;
12780;SDS011;6454;43.304;24.344;2023-04-24T00:25:43;5.10;;;4.03;;
12780;SDS011;6454;43.304;24.344;2023-04-24T00:28:10;7.38;;;4.50;;
12780;SDS011;6454;43.304;24.344;2023-04-24T00:30:36;5.55;;;4.75;;
12780;SDS011;6454;43.304;24.344;2023-04-24T00:33:03;4.65;;;4.20;;
12780;SDS011;6454;43.304;24.344;2023-04-24T00:35:30;4.22;;;3.90;;
12780;SDS011;6454;43.304;24.344;2023-04-24T00:37:57;5.00;;;4.50;;
12780;SDS011;6454;43.304;24.344;2023-04-24T00:40:25;5.60;;;4.50;;
12780;SDS011;6454;43.304;24.344;2023-04-24T00:42:52;4.25;;;3.85;;
12780;SDS011;6454;43.304;24.344;2023-04-24T00:45:19;6.63;;;4.70;;
12780;SDS011;6454;43.304;24.344;2023-04-24T00:47:46;5.18;;;4.68;;
12780;SDS011;6454;43.304;24.344;2023-04-24T00:50:14;8.20;;;4.70;;
12780;SDS011;6454;43.304;24.344;2023-04-24T00:52:41;6.70;;;5.93;;
12780;SDS011;6454;43.304;24.344;2023-04-24T00:55:08;6.93;;;5.63;;
12780;SDS011;6454;43.304;24.344;2023-04-24T00:57:37;8.90;;;5.78;;
12780;SDS011;6454;43.304;24.344;2023-04-24T01:00:04;6.20;;;5.43;;
12780;SDS011;6454;43.304;24.344;2023-04-24T01:02:36;5.90;;;5.22;;
12780;SDS011;6454;43.304;24.344;2023-04-24T01:05:05;6.55;;;5.95;;
12780;SDS011;6454;43.304;24.344;2023-04-24T01:07:33;6.53;;;5.88;;
12780;SDS011;6454;43.304;24.344;2023-04-24T01:10:00;6.03;;;5.20;;
12780;SDS011;6454;43.304;24.344;2023-04-24T01:12:27;6.68;;;5.57;;
12780;SDS011;6454;43.304;24.344;2023-04-24T01:14:55;7.13;;;5.50;;
12780;SDS011;6454;43.304;24.344;2023-04-24T01:17:22;7.75;;;5.57;;
12780;SDS011;6454;43.304;24.344;2023-04-24T01:19:49;8.07;;;6.15;;
12780;SDS011;6454;43.304;24.344;2023-04-24T01:22:20;6.70;;;5.93;;
12780;SDS011;6454;43.304;24.344;2023-04-24T01:24:46;6.72;;;6.13;;
12780;SDS011;6454;43.304;24.344;2023-04-24T01:27:14;6.50;;;5.80;;
12780;SDS011;6454;43.304;24.344;2023-04-24T01:29:41;6.68;;;6.00;;
12780;SDS011;6454;43.304;24.344;2023-04-24T01:32:08;6.45;;;5.85;;
12780;SDS011;6454;43.304;24.344;2023-04-24T01:34:35;7.63;;;6.05;;
12780;SDS011;6454;43.304;24.344;2023-04-24T01:37:02;7.03;;;6.32;;
12780;SDS011;6454;43.304;24.344;2023-04-24T01:39:31;6.40;;;5.80;;
12780;SDS011;6454;43.304;24.344;2023-04-24T01:41:58;6.70;;;5.80;;
12780;SDS011;6454;43.304;24.344;2023-04-24T01:44:26;6.38;;;5.78;;
12780;SDS011;6454;43.304;24.344;2023-04-24T01:46:54;6.68;;;5.47;;
12780;SDS011;6454;43.304;24.344;2023-04-24T01:49:21;7.22;;;5.65;;
12780;SDS011;6454;43.304;24.344;2023-04-24T01:51:48;6.97;;;5.57;;
12780;SDS011;6454;43.304;24.344;2023-04-24T01:54:15;6.88;;;5.78;;
12780;SDS011;6454;43.304;24.344;2023-04-24T01:56:43;8.43;;;5.03;;
12780;SDS011;6454;43.304;24.344;2023-04-24T01:59:10;5.10;;;4.60;;
12780;SDS011;6454;43.304;24.344;2023-04-24T02:01:38;5.57;;;4.88;;
12780;SDS011;6454;43.304;24.344;2023-04-24T02:04:05;4.95;;;4.45;;
12780;SDS011;6454;43.304;24.344;2023-04-24T02:06:33;6.20;;;4.80;;
12780;SDS011;6454;43.304;24.344;2023-04-24T02:09:00;7.78;;;5.00;;
12780;SDS011;6454;43.304;24.344;2023-04-24T02:11:27;5.75;;;4.00;;
12780;SDS011;6454;43.304;24.344;2023-04-24T02:13:55;5.80;;;4.57;;
12780;SDS011;6454;43.304;24.344;2023-04-24T02:16:22;5.18;;;4.68;;
12780;SDS011;6454;43.304;24.344;2023-04-24T02:18:48;5.38;;;4.22;;
12780;SDS011;6454;43.304;24.344;2023-04-24T02:21:15;5.43;;;4.90;;
12780;SDS011;6454;43.304;24.344;2023-04-24T02:23:42;5.93;;;4.65;;
12780;SDS011;6454;43.304;24.344;2023-04-24T02:26:09;4.53;;;4.10;;
12780;SDS011;6454;43.304;24.344;2023-04-24T02:28:36;5.75;;;4.43;;
12780;SDS011;6454;43.304;24.344;2023-04-24T02:31:04;5.93;;;5.00;;
12780;SDS011;6454;43.304;24.344;2023-04-24T02:33:31;6.45;;;4.70;;
12780;SDS011;6454;43.304;24.344;2023-04-24T02:35:58;6.63;;;4.80;;
12780;SDS011;6454;43.304;24.344;2023-04-24T02:38:26;5.43;;;4.25;;
12780;SDS011;6454;43.304;24.344;2023-04-24T02:40:53;5.75;;;4.65;;
12780;SDS011;6454;43.304;24.344;2023-04-24T02:43:20;6.95;;;4.50;;
12780;SDS011;6454;43.304;24.344;2023-04-24T02:45:47;5.90;;;5.03;;
12780;SDS011;6454;43.304;24.344;2023-04-24T02:48:15;5.45;;;4.22;;
12780;SDS011;6454;43.304;24.344;2023-04-24T02:50:42;5.25;;;4.60;;
12780;SDS011;6454;43.304;24.344;2023-04-24T02:53:08;6.53;;;5.22;;
12780;SDS011;6454;43.304;24.344;2023-04-24T02:55:35;5.25;;;4.75;;
12780;SDS011;6454;43.304;24.344;2023-04-24T02:58:02;5.03;;;4.55;;
12780;SDS011;6454;43.304;24.344;2023-04-24T03:00:29;5.40;;;4.90;;
12780;SDS011;6454;43.304;24.344;2023-04-24T03:02:56;5.18;;;4.57;;
12780;SDS011;6454;43.304;24.344;2023-04-24T03:05:24;4.85;;;4.45;;
12780;SDS011;6454;43.304;24.344;2023-04-24T03:07:52;5.72;;;4.63;;
12780;SDS011;6454;43.304;24.344;2023-04-24T03:10:19;5.40;;;4.68;;
12780;SDS011;6454;43.304;24.344;2023-04-24T03:12:47;6.95;;;4.93;;
12780;SDS011;6454;43.304;24.344;2023-04-24T03:15:14;5.50;;;4.57;;
12780;SDS011;6454;43.304;24.344;2023-04-24T03:17:41;6.60;;;4.63;;
12780;SDS011;6454;43.304;24.344;2023-04-24T03:20:08;7.55;;;4.93;;
12780;SDS011;6454;43.304;24.344;2023-04-24T03:22:36;6.30;;;4.40;;
12780;SDS011;6454;43.304;24.344;2023-04-24T03:25:04;7.50;;;4.95;;
12780;SDS011;6454;43.304;24.344;2023-04-24T03:27:33;5.18;;;4.68;;
12780;SDS011;6454;43.304;24.344;2023-04-24T03:30:00;6.55;;;4.80;;
12780;SDS011;6454;43.304;24.344;2023-04-24T03:32:27;7.30;;;4.53;;
12780;SDS011;6454;43.304;24.344;2023-04-24T03:34:54;4.63;;;4.20;;
12780;SDS011;6454;43.304;24.344;2023-04-24T03:37:20;9.48;;;4.88;;
12780;SDS011;6454;43.304;24.344;2023-04-24T03:39:48;5.28;;;4.80;;
12780;SDS011;6454;43.304;24.344;2023-04-24T03:42:15;5.72;;;4.43;;
12780;SDS011;6454;43.304;24.344;2023-04-24T03:44:42;6.55;;;4.93;;
12780;SDS011;6454;43.304;24.344;2023-04-24T03:47:09;7.13;;;4.75;;
12780;SDS011;6454;43.304;24.344;2023-04-24T03:49:36;5.60;;;4.60;;
12780;SDS011;6454;43.304;24.344;2023-04-24T03:52:02;5.35;;;4.82;;
12780;SDS011;6454;43.304;24.344;2023-04-24T03:54:29;8.27;;;5.18;;
12780;SDS011;6454;43.304;24.344;2023-04-24T03:56:57;8.38;;;5.80;;
12780;SDS011;6454;43.304;24.344;2023-04-24T03:59:24;7.15;;;5.40;;
12780;SDS011;6454;43.304;24.344;2023-04-24T04:01:51;10.05;;;6.25;;
12780;SDS011;6454;43.304;24.344;2023-04-24T04:04:17;9.13;;;6.57;;
12780;SDS011;6454;43.304;24.344;2023-04-24T04:06:44;7.72;;;7.03;;
12780;SDS011;6454;43.304;24.344;2023-04-24T04:09:11;6.55;;;5.95;;
12780;SDS011;6454;43.304;24.344;2023-04-24T04:11:38;8.10;;;6.00;;
12780;SDS011;6454;43.304;24.344;2023-04-24T04:14:06;6.55;;;5.45;;
12780;SDS011;6454;43.304;24.344;2023-04-24T04:16:33;6.75;;;5.60;;
12780;SDS011;6454;43.304;24.344;2023-04-24T04:19:01;9.43;;;6.32;;
12780;SDS011;6454;43.304;24.344;2023-04-24T04:21:28;7.13;;;5.40;;
12780;SDS011;6454;43.304;24.344;2023-04-24T04:23:55;8.18;;;6.32;;
12780;SDS011;6454;43.304;24.344;2023-04-24T04:26:22;9.18;;;6.25;;
12780;SDS011;6454;43.304;24.344;2023-04-24T04:28:50;6.13;;;5.53;;
12780;SDS011;6454;43.304;24.344;2023-04-24T04:31:18;7.03;;;6.25;;
12780;SDS011;6454;43.304;24.344;2023-04-24T04:33:46;8.07;;;6.03;;
12780;SDS011;6454;43.304;24.344;2023-04-24T04:36:13;6.85;;;6.15;;
12780;SDS011;6454;43.304;24.344;2023-04-24T04:38:39;6.88;;;6.15;;
12780;SDS011;6454;43.304;24.344;2023-04-24T04:41:08;7.68;;;6.97;;
12780;SDS011;6454;43.304;24.344;2023-04-24T04:43:35;9.18;;;6.95;;
12780;SDS011;6454;43.304;24.344;2023-04-24T04:46:02;8.25;;;7.22;;
12780;SDS011;6454;43.304;24.344;2023-04-24T04:48:30;8.73;;;6.63;;
12780;SDS011;6454;43.304;24.344;2023-04-24T04:50:57;8.95;;;8.02;;
12780;SDS011;6454;43.304;24.344;2023-04-24T04:53:24;10.77;;;8.07;;
12780;SDS011;6454;43.304;24.344;2023-04-24T04:55:51;8.38;;;7.57;;
12780;SDS011;6454;43.304;24.344;2023-04-24T04:58:18;8.85;;;8.00;;
12780;SDS011;6454;43.304;24.344;2023-04-24T05:00:45;8.25;;;7.47;;
12780;SDS011;6454;43.304;24.344;2023-04-24T05:03:12;8.18;;;7.38;;
12780;SDS011;6454;43.304;24.344;2023-04-24T05:05:40;8.80;;;7.82;;
12780;SDS011;6454;43.304;24.344;2023-04-24T05:08:07;8.55;;;7.40;;
12780;SDS011;6454;43.304;24.344;2023-04-24T05:10:34;8.80;;;7.90;;
12780;SDS011;6454;43.304;24.344;2023-04-24T05:13:02;8.68;;;7.00;;
12780;SDS011;6454;43.304;24.344;2023-04-24T05:15:29;7.53;;;6.80;;
12780;SDS011;6454;43.304;24.344;2023-04-24T05:17:56;8.45;;;7.10;;
12780;SDS011;6454;43.304;24.344;2023-04-24T05:20:23;7.57;;;6.95;;
12780;SDS011;6454;43.304;24.344;2023-04-24T05:22:51;8.00;;;6.80;;
12780;SDS011;6454;43.304;24.344;2023-04-24T05:25:18;8.05;;;7.25;;
12780;SDS011;6454;43.304;24.344;2023-04-24T05:27:45;8.27;;;6.85;;
12780;SDS011;6454;43.304;24.344;2023-04-24T05:30:12;7.82;;;6.85;;
12780;SDS011;6454;43.304;24.344;2023-04-24T05:32:39;8.00;;;6.90;;
12780;SDS011;6454;43.304;24.344;2023-04-24T05:35:06;9.00;;;7.03;;
12780;SDS011;6454;43.304;24.344;2023-04-24T05:37:34;9.68;;;7.00;;
12780;SDS011;6454;43.304;24.344;2023-04-24T05:40:02;7.57;;;6.85;;
12780;SDS011;6454;43.304;24.344;2023-04-24T05:42:30;8.73;;;7.78;;
12780;SDS011;6454;43.304;24.344;2023-04-24T05:44:57;7.72;;;7.03;;
12780;SDS011;6454;43.304;24.344;2023-04-24T05:47:24;7.60;;;6.75;;
12780;SDS011;6454;43.304;24.344;2023-04-24T05:49:51;8.98;;;6.90;;
12780;SDS011;6454;43.304;24.344;2023-04-24T05:52:18;8.00;;;7.18;;
12780;SDS011;6454;43.304;24.344;2023-04-24T05:54:45;8.68;;;7.05;;
12780;SDS011;6454;43.304;24.344;2023-04-24T05:57:14;8.85;;;7.85;;
12780;SDS011;6454;43.304;24.344;2023-04-24T05:59:40;7.43;;;6.72;;
12780;SDS011;6454;43.304;24.344;2023-04-24T06:02:07;8.52;;;7.63;;
12780;SDS011;6454;43.304;24.344;2023-04-24T06:04:34;7.75;;;7.05;;
12780;SDS011;6454;43.304;24.344;2023-04-24T06:07:01;7.90;;;7.20;;
12780;SDS011;6454;43.304;24.344;2023-04-24T06:09:28;7.85;;;7.10;;
12780;SDS011;6454;43.304;24.344;2023-04-24T06:11:55;9.40;;;7.40;;
12780;SDS011;6454;43.304;24.344;2023-04-24T06:14:23;10.18;;;8.18;;
12780;SDS011;6454;43.304;24.344;2023-04-24T06:16:50;11.85;;;8.02;;
12780;SDS011;6454;43.304;24.344;2023-04-24T06:19:17;9.30;;;8.40;;
12780;SDS011;6454;43.304;24.344;2023-04-24T06:21:44;10.20;;;8.23;;
12780;SDS011;6454;43.304;24.344;2023-04-24T06:24:13;10.20;;;8.20;;
12780;SDS011;6454;43.304;24.344;2023-04-24T06:26:41;9.25;;;7.85;;
12780;SDS011;6454;43.304;24.344;2023-04-24T06:29:08;8.32;;;7.53;;
12780;SDS011;6454;43.304;24.344;2023-04-24T06:31:36;7.78;;;6.90;;
12780;SDS011;6454;43.304;24.344;2023-04-24T06:34:03;8.48;;;6.47;;
12780;SDS011;6454;43.304;24.344;2023-04-24T06:36:30;7.63;;;6.35;;
12780;SDS011;6454;43.304;24.344;2023-04-24T06:38:57;6.72;;;6.13;;
12780;SDS011;6454;43.304;24.344;2023-04-24T06:41:24;6.15;;;5.50;;
12780;SDS011;6454;43.304;24.344;2023-04-24T06:43:51;6.53;;;5.00;;
12780;SDS011;6454;43.304;24.344;2023-04-24T06:46:18;5.47;;;4.82;;
12780;SDS011;6454;43.304;24.344;2023-04-24T06:48:48;6.07;;;5.22;;
12780;SDS011;6454;43.304;24.344;2023-04-24T06:51:15;5.88;;;5.05;;
12780;SDS011;6454;43.304;24.344;2023-04-24T06:53:43;7.30;;;5.70;;
12780;SDS011;6454;43.304;24.344;2023-04-24T06:56:09;5.65;;;5.15;;
12780;SDS011;6454;43.304;24.344;2023-04-24T06:58:36;6.22;;;5.55;;
12780;SDS011;6454;43.304;24.344;2023-04-24T07:01:03;6.07;;;5.47;;
12780;SDS011;6454;43.304;24.344;2023-04-24T07:03:30;5.45;;;4.90;;
12780;SDS011;6454;43.304;24.344;2023-04-24T07:05:58;5.60;;;4.90;;
12780;SDS011;6454;43.304;24.344;2023-04-24T07:08:25;5.00;;;4.50;;
12780;SDS011;6454;43.304;24.344;2023-04-24T07:10:52;5.28;;;4.70;;
12780;SDS011;6454;43.304;24.344;2023-04-24T07:13:19;4.97;;;4.47;;
12780;SDS011;6454;43.304;24.344;2023-04-24T07:15:45;5.75;;;4.40;;
12780;SDS011;6454;43.304;24.344;2023-04-24T07:18:14;6.22;;;3.90;;
12780;SDS011;6454;43.304;24.344;2023-04-24T07:20:40;8.40;;;4.72;;
12780;SDS011;6454;43.304;24.344;2023-04-24T07:23:09;7.82;;;4.63;;
12780;SDS011;6454;43.304;24.344;2023-04-24T07:25:35;6.68;;;4.18;;
12780;SDS011;6454;43.304;24.344;2023-04-24T07:28:03;5.47;;;4.15;;
12780;SDS011;6454;43.304;24.344;2023-04-24T07:30:30;5.93;;;4.50;;
12780;SDS011;6454;43.304;24.344;2023-04-24T07:32:58;6.03;;;5.28;;
12780;SDS011;6454;43.304;24.344;2023-04-24T07:35:25;5.00;;;4.38;;
12780;SDS011;6454;43.304;24.344;2023-04-24T07:37:52;7.70;;;4.60;;
12780;SDS011;6454;43.304;24.344;2023-04-24T07:40:20;4.78;;;3.80;;
12780;SDS011;6454;43.304;24.344;2023-04-24T07:42:48;4.05;;;3.67;;
12780;SDS011;6454;43.304;24.344;2023-04-24T07:45:15;4.82;;;3.67;;
12780;SDS011;6454;43.304;24.344;2023-04-24T07:47:42;5.05;;;4.10;;
12780;SDS011;6454;43.304;24.344;2023-04-24T07:50:10;4.88;;;3.90;;
12780;SDS011;6454;43.304;24.344;2023-04-24T07:52:37;3.92;;;3.55;;
12780;SDS011;6454;43.304;24.344;2023-04-24T07:55:05;4.35;;;3.95;;
12780;SDS011;6454;43.304;24.344;2023-04-24T07:57:33;5.07;;;4.22;;
12780;SDS011;6454;43.304;24.344;2023-04-24T08:00:02;4.53;;;4.10;;
12780;SDS011;6454;43.304;24.344;2023-04-24T08:02:30;4.70;;;4.20;;
12780;SDS011;6454;43.304;24.344;2023-04-24T08:04:57;4.95;;;3.90;;
12780;SDS011;6454;43.304;24.344;2023-04-24T08:07:24;4.32;;;3.75;;
12780;SDS011;6454;43.304;24.344;2023-04-24T08:09:51;4.97;;;3.60;;
12780;SDS011;6454;43.304;24.344;2023-04-24T08:12:18;4.82;;;3.92;;
12780;SDS011;6454;43.304;24.344;2023-04-24T08:14:46;7.80;;;3.88;;
12780;SDS011;6454;43.304;24.344;2023-04-24T08:17:12;3.58;;;3.25;;
12780;SDS011;6454;43.304;24.344;2023-04-24T08:19:40;7.38;;;3.85;;
12780;SDS011;6454;43.304;24.344;2023-04-24T08:22:12;4.43;;;3.92;;
12780;SDS011;6454;43.304;24.344;2023-04-24T08:24:39;4.85;;;4.30;;
12780;SDS011;6454;43.304;24.344;2023-04-24T08:27:06;4.22;;;3.80;;
12780;SDS011;6454;43.304;24.344;2023-04-24T08:29:32;5.82;;;3.88;;
12780;SDS011;6454;43.304;24.344;2023-04-24T08:32:01;5.30;;;4.68;;
12780;SDS011;6454;43.304;24.344;2023-04-24T08:34:27;7.32;;;4.43;;
12780;SDS011;6454;43.304;24.344;2023-04-24T08:36:54;5.00;;;4.32;;
12780;SDS011;6454;43.304;24.344;2023-04-24T08:39:21;6.20;;;4.20;;
12780;SDS011;6454;43.304;24.344;2023-04-24T08:41:48;5.68;;;4.00;;
12780;SDS011;6454;43.304;24.344;2023-04-24T08:44:16;4.78;;;4.07;;
12780;SDS011;6454;43.304;24.344;2023-04-24T08:46:46;4.63;;;4.07;;
12780;SDS011;6454;43.304;24.344;2023-04-24T08:49:15;6.43;;;4.20;;
12780;SDS011;6454;43.304;24.344;2023-04-24T08:51:43;4.70;;;4.15;;
12780;SDS011;6454;43.304;24.344;2023-04-24T08:54:12;5.75;;;3.80;;
12780;SDS011;6454;43.304;24.344;2023-04-24T08:56:39;5.65;;;3.90;;
12780;SDS011;6454;43.304;24.344;2023-04-24T08:59:09;4.40;;;4.00;;
12780;SDS011;6454;43.304;24.344;2023-04-24T09:01:37;5.45;;;4.00;;
12780;SDS011;6454;43.304;24.344;2023-04-24T09:04:07;4.60;;;4.10;;
12780;SDS011;6454;43.304;24.344;2023-04-24T09:06:37;6.00;;;4.35;;
12780;SDS011;6454;43.304;24.344;2023-04-24T09:09:03;7.63;;;4.25;;
12780;SDS011;6454;43.304;24.344;2023-04-24T09:11:31;4.65;;;4.20;;
12780;SDS011;6454;43.304;24.344;2023-04-24T09:13:58;4.82;;;4.00;;
12780;SDS011;6454;43.304;24.344;2023-04-24T09:16:26;4.75;;;4.13;;
12780;SDS011;6454;43.304;24.344;2023-04-24T09:18:54;7.05;;;3.97;;
12780;SDS011;6454;43.304;24.344;2023-04-24T09:21:22;4.32;;;3.78;;
12780;SDS011;6454;43.304;24.344;2023-04-24T09:23:58;5.80;;;4.00;;
12780;SDS011;6454;43.304;24.344;2023-04-24T09:26:26;11.02;;;4.35;;
12780;SDS011;6454;43.304;24.344;2023-04-24T09:28:56;4.55;;;4.07;;
12780;SDS011;6454;43.304;24.344;2023-04-24T09:31:23;4.55;;;4.10;;
12780;SDS011;6454;43.304;24.344;2023-04-24T09:33:54;8.65;;;4.22;;
12780;SDS011;6454;43.304;24.344;2023-04-24T09:36:26;4.32;;;3.85;;
12780;SDS011;6454;43.304;24.344;2023-04-24T09:38:55;4.10;;;3.80;;
12780;SDS011;6454;43.304;24.344;2023-04-24T09:41:25;6.10;;;3.80;;
12780;SDS011;6454;43.304;24.344;2023-04-24T09:43:53;4.45;;;3.42;;
12780;SDS011;6454;43.304;24.344;2023-04-24T09:46:21;4.82;;;3.20;;
12780;SDS011;6454;43.304;24.344;2023-04-24T09:48:55;5.05;;;3.63;;
12780;SDS011;6454;43.304;24.344;2023-04-24T09:51:32;4.18;;;3.53;;
12780;SDS011;6454;43.304;24.344;2023-04-24T09:54:02;3.72;;;3.42;;
12780;SDS011;6454;43.304;24.344;2023-04-24T09:56:29;4.95;;;3.30;;
12780;SDS011;6454;43.304;24.344;2023-04-24T09:59:03;4.53;;;3.47;;
12780;SDS011;6454;43.304;24.344;2023-04-24T10:01:31;4.38;;;3.33;;
12780;SDS011;6454;43.304;24.344;2023-04-24T10:03:58;4.05;;;3.17;;
12780;SDS011;6454;43.304;24.344;2023-04-24T10:06:29;3.67;;;3.10;;
12780;SDS011;6454;43.304;24.344;2023-04-24T10:08:57;4.93;;;3.30;;
12780;SDS011;6454;43.304;24.344;2023-04-24T10:11:26;3.55;;;3.25;;
12780;SDS011;6454;43.304;24.344;2023-04-24T10:13:54;4.30;;;3.58;;
12780;SDS011;6454;43.304;24.344;2023-04-24T10:16:22;4.45;;;3.10;;
12780;SDS011;6454;43.304;24.344;2023-04-24T10:18:49;3.55;;;3.25;;
12780;SDS011;6454;43.304;24.344;2023-04-24T10:21:16;4.45;;;3.63;;
12780;SDS011;6454;43.304;24.344;2023-04-24T10:23:43;3.70;;;3.22;;
12780;SDS011;6454;43.304;24.344;2023-04-24T10:26:12;3.72;;;3.42;;
12780;SDS011;6454;43.304;24.344;2023-04-24T10:28:44;5.22;;;3.53;;
12780;SDS011;6454;43.304;24.344;2023-04-24T10:31:12;5.82;;;3.30;;
12780;SDS011;6454;43.304;24.344;2023-04-24T10:33:39;4.18;;;3.30;;
12780;SDS011;6454;43.304;24.344;2023-04-24T10:36:07;4.80;;;3.10;;
12780;SDS011;6454;43.304;24.344;2023-04-24T10:38:35;3.58;;;3.28;;
12780;SDS011;6454;43.304;24.344;2023-04-24T10:41:08;3.50;;;3.20;;
12780;SDS011;6454;43.304;24.344;2023-04-24T10:43:41;4.10;;;3.33;;
12780;SDS011;6454;43.304;24.344;2023-04-24T10:46:10;3.10;;;2.60;;
12780;SDS011;6454;43.304;24.344;2023-04-24T10:48:41;3.90;;;3.50;;
12780;SDS011;6454;43.304;24.344;2023-04-24T10:51:11;3.50;;;3.20;;
12780;SDS011;6454;43.304;24.344;2023-04-24T10:53:39;3.55;;;2.67;;
12780;SDS011;6454;43.304;24.344;2023-04-24T10:56:06;4.45;;;2.90;;
12780;SDS011;6454;43.304;24.344;2023-04-24T10:58:36;3.33;;;3.03;;
12780;SDS011;6454;43.304;24.344;2023-04-24T11:01:05;3.40;;;3.10;;
12780;SDS011;6454;43.304;24.344;2023-04-24T11:03:34;3.90;;;2.78;;
12780;SDS011;6454;43.304;24.344;2023-04-24T11:06:03;4.07;;;3.00;;
12780;SDS011;6454;43.304;24.344;2023-04-24T11:08:32;3.40;;;2.70;;
12780;SDS011;6454;43.304;24.344;2023-04-24T11:11:04;3.38;;;3.08;;
12780;SDS011;6454;43.304;24.344;2023-04-24T11:16:34;3.25;;;2.95;;
12780;SDS011;6454;43.304;24.344;2023-04-24T11:19:20;3.17;;;2.85;;
12780;SDS011;6454;43.304;24.344;2023-04-24T11:21:54;3.00;;;2.70;;
12780;SDS011;6454;43.304;24.344;2023-04-24T11:24:32;3.28;;;2.85;;
12780;SDS011;6454;43.304;24.344;2023-04-24T11:27:07;3.90;;;2.70;;
12780;SDS011;6454;43.304;24.344;2023-04-24T11:29:43;3.00;;;2.63;;
12780;SDS011;6454;43.304;24.344;2023-04-24T11:35:03;6.70;;;4.05;;
12780;SDS011;6454;43.304;24.344;2023-04-24T11:37:36;5.65;;;4.70;;
12780;SDS011;6454;43.304;24.344;2023-04-24T11:40:04;4.28;;;3.28;;
12780;SDS011;6454;43.304;24.344;2023-04-24T11:42:35;4.30;;;3.13;;
12780;SDS011;6454;43.304;24.344;2023-04-24T11:45:07;3.95;;;3.33;;
12780;SDS011;6454;43.304;24.344;2023-04-24T11:47:35;3.58;;;3.10;;
12780;SDS011;6454;43.304;24.344;2023-04-24T11:50:04;4.80;;;2.92;;
12780;SDS011;6454;43.304;24.344;2023-04-24T11:52:32;3.65;;;3.05;;
12780;SDS011;6454;43.304;24.344;2023-04-24T11:55:02;3.03;;;2.83;;
12780;SDS011;6454;43.304;24.344;2023-04-24T11:57:30;3.45;;;2.60;;
12780;SDS011;6454;43.304;24.344;2023-04-24T11:59:59;4.18;;;3.00;;
12780;SDS011;6454;43.304;24.344;2023-04-24T12:02:27;3.22;;;2.97;;
12780;SDS011;6454;43.304;24.344;2023-04-24T12:04:54;3.80;;;2.88;;
12780;SDS011;6454;43.304;24.344;2023-04-24T12:07:22;3.00;;;2.70;;
12780;SDS011;6454;43.304;24.344;2023-04-24T12:09:55;7.15;;;2.90;;
12780;SDS011;6454;43.304;24.344;2023-04-24T12:12:27;3.05;;;2.75;;
12780;SDS011;6454;43.304;24.344;2023-04-24T12:14:55;3.38;;;3.00;;
12780;SDS011;6454;43.304;24.344;2023-04-24T12:17:24;4.78;;;3.13;;
12780;SDS011;6454;43.304;24.344;2023-04-24T12:19:51;3.38;;;3.08;;
12780;SDS011;6454;43.304;24.344;2023-04-24T12:22:18;3.78;;;3.10;;
12780;SDS011;6454;43.304;24.344;2023-04-24T12:25:03;3.38;;;2.70;;
12780;SDS011;6454;43.304;24.344;2023-04-24T12:27:31;4.10;;;2.95;;
12780;SDS011;6454;43.304;24.344;2023-04-24T12:29:59;3.20;;;2.90;;
12780;SDS011;6454;43.304;24.344;2023-04-24T12:32:27;3.92;;;2.58;;
12780;SDS011;6454;43.304;24.344;2023-04-24T12:34:54;3.17;;;2.88;;
12780;SDS011;6454;43.304;24.344;2023-04-24T12:37:22;3.42;;;2.85;;
12780;SDS011;6454;43.304;24.344;2023-04-24T12:40:02;3.20;;;2.90;;
12780;SDS011;6454;43.304;24.344;2023-04-24T12:42:31;2.83;;;2.38;;
12780;SDS011;6454;43.304;24.344;2023-04-24T12:44:59;2.95;;;2.55;;
12780;SDS011;6454;43.304;24.344;2023-04-24T12:47:27;5.30;;;2.65;;
12780;SDS011;6454;43.304;24.344;2023-04-24T12:49:54;6.70;;;2.90;;
12780;SDS011;6454;43.304;24.344;2023-04-24T12:52:21;3.67;;;2.80;;
12780;SDS011;6454;43.304;24.344;2023-04-24T12:54:48;4.13;;;2.45;;
12780;SDS011;6454;43.304;24.344;2023-04-24T12:57:17;3.78;;;2.42;;
12780;SDS011;6454;43.304;24.344;2023-04-24T12:59:44;2.92;;;2.58;;
12780;SDS011;6454;43.304;24.344;2023-04-24T13:02:11;3.35;;;2.10;;
12780;SDS011;6454;43.304;24.344;2023-04-24T13:04:38;2.97;;;2.40;;
12780;SDS011;6454;43.304;24.344;2023-04-24T13:07:04;3.97;;;2.40;;
12780;SDS011;6454;43.304;24.344;2023-04-24T13:09:34;2.90;;;2.42;;
12780;SDS011;6454;43.304;24.344;2023-04-24T13:12:01;2.35;;;1.95;;
12780;SDS011;6454;43.304;24.344;2023-04-24T13:14:29;11.68;;;2.50;;
12780;SDS011;6454;43.304;24.344;2023-04-24T13:16:56;3.38;;;2.28;;
12780;SDS011;6454;43.304;24.344;2023-04-24T13:19:23;5.55;;;2.42;;
12780;SDS011;6454;43.304;24.344;2023-04-24T13:21:51;4.75;;;2.55;;
12780;SDS011;6454;43.304;24.344;2023-04-24T13:24:18;6.07;;;3.22;;
12780;SDS011;6454;43.304;24.344;2023-04-24T13:26:45;4.60;;;2.95;;
12780;SDS011;6454;43.304;24.344;2023-04-24T13:29:11;3.17;;;2.88;;
12780;SDS011;6454;43.304;24.344;2023-04-24T13:31:40;4.13;;;3.10;;
12780;SDS011;6454;43.304;24.344;2023-04-24T13:34:06;4.18;;;3.03;;
12780;SDS011;6454;43.304;24.344;2023-04-24T13:36:33;3.40;;;3.05;;
12780;SDS011;6454;43.304;24.344;2023-04-24T13:39:00;6.30;;;3.05;;
12780;SDS011;6454;43.304;24.344;2023-04-24T13:41:28;4.25;;;3.00;;
12780;SDS011;6454;43.304;24.344;2023-04-24T13:43:55;5.20;;;3.00;;
12780;SDS011;6454;43.304;24.344;2023-04-24T13:46:22;5.05;;;2.85;;
12780;SDS011;6454;43.304;24.344;2023-04-24T13:48:50;3.42;;;2.90;;
12780;SDS011;6454;43.304;24.344;2023-04-24T13:51:17;5.72;;;3.00;;
12780;SDS011;6454;43.304;24.344;2023-04-24T13:53:44;3.60;;;2.80;;
12780;SDS011;6454;43.304;24.344;2023-04-24T13:56:11;4.68;;;2.88;;
12780;SDS011;6454;43.304;24.344;2023-04-24T13:58:39;11.32;;;2.78;;
12780;SDS011;6454;43.304;24.344;2023-04-24T14:01:06;9.48;;;3.28;;
12780;SDS011;6454;43.304;24.344;2023-04-24T14:03:33;4.07;;;2.58;;
12780;SDS011;6454;43.304;24.344;2023-04-24T14:06:01;5.05;;;2.80;;
12780;SDS011;6454;43.304;24.344;2023-04-24T14:08:28;5.32;;;2.67;;
12780;SDS011;6454;43.304;24.344;2023-04-24T14:10:55;4.05;;;2.40;;
12780;SDS011;6454;43.304;24.344;2023-04-24T14:13:21;3.95;;;2.85;;
12780;SDS011;6454;43.304;24.344;2023-04-24T14:15:48;9.80;;;3.58;;
12780;SDS011;6454;43.304;24.344;2023-04-24T14:18:15;4.72;;;2.95;;
12780;SDS011;6454;43.304;24.344;2023-04-24T14:20:42;4.28;;;3.05;;
12780;SDS011;6454;43.304;24.344;2023-04-24T14:23:10;3.92;;;2.65;;
12780;SDS011;6454;43.304;24.344;2023-04-24T14:25:37;5.07;;;2.70;;
12780;SDS011;6454;43.304;24.344;2023-04-24T14:28:05;4.50;;;2.70;;
12780;SDS011;6454;43.304;24.344;2023-04-24T14:30:32;3.38;;;2.88;;
12780;SDS011;6454;43.304;24.344;2023-04-24T14:32:59;2.95;;;2.42;;
12780;SDS011;6454;43.304;24.344;2023-04-24T14:35:26;3.55;;;2.70;;
12780;SDS011;6454;43.304;24.344;2023-04-24T14:37:54;6.47;;;3.50;;
12780;SDS011;6454;43.304;24.344;2023-04-24T14:40:22;4.97;;;3.00;;
12780;SDS011;6454;43.304;24.344;2023-04-24T14:42:49;5.82;;;3.00;;
12780;SDS011;6454;43.304;24.344;2023-04-24T14:45:16;4.28;;;3.00;;
12780;SDS011;6454;43.304;24.344;2023-04-24T14:47:43;5.32;;;2.90;;
12780;SDS011;6454;43.304;24.344;2023-04-24T14:50:10;3.55;;;2.70;;
12780;SDS011;6454;43.304;24.344;2023-04-24T14:52:37;3.78;;;2.75;;
12780;SDS011;6454;43.304;24.344;2023-04-24T14:55:05;3.95;;;3.40;;
12780;SDS011;6454;43.304;24.344;2023-04-24T14:57:34;5.22;;;3.00;;